createdAt,value
2018-12-16T00:00:12.345Z,0.10
2018-12-16T00:02:40.802Z,0.10
2018-12-16T00:05:09.207Z,0.10
2018-12-16T00:07:37.536Z,0.10
2018-12-16T00:10:06.232Z,0.10
2018-12-16T00:12:34.551Z,0.10
2018-12-16T00:15:02.782Z,0.00
2018-12-16T00:17:30.942Z,0.10
2018-12-16T00:19:59.339Z,0.00
2018-12-16T00:22:30.001Z,0.00
2018-12-16T00:24:58.780Z,0.10
2018-12-16T00:27:27.304Z,0.10
2018-12-16T00:29:55.715Z,0.10
2018-12-16T00:32:24.043Z,0.10
2018-12-16T00:34:52.343Z,0.20
2018-12-16T00:37:20.704Z,0.10
2018-12-16T00:39:49.009Z,0.10
2018-12-16T00:42:17.237Z,0.00
2018-12-16T00:44:45.575Z,0.00
2018-12-16T00:47:13.853Z,0.00
2018-12-16T00:49:42.051Z,0.00
2018-12-16T00:52:10.320Z,0.00
2018-12-16T00:54:38.661Z,0.00
2018-12-16T00:57:07.005Z,0.00
2018-12-16T00:59:35.229Z,0.00
2018-12-16T01:02:03.631Z,-0.10
2018-12-16T01:04:32.003Z,-0.10
2018-12-16T01:07:00.242Z,-0.10
2018-12-16T01:09:28.747Z,-0.10
2018-12-16T01:11:57.089Z,-0.10
2018-12-16T01:14:25.388Z,-0.10
2018-12-16T01:16:53.787Z,-0.10
2018-12-16T01:19:22.132Z,-0.10
2018-12-16T01:21:50.415Z,-0.10
2018-12-16T01:24:18.876Z,-0.10
2018-12-16T01:26:47.094Z,-0.10
2018-12-16T01:29:15.381Z,-0.10
2018-12-16T01:31:43.691Z,0.00
2018-12-16T01:34:12.143Z,-0.10
2018-12-16T01:36:40.399Z,-0.10
2018-12-16T01:39:08.791Z,-0.10
2018-12-16T01:41:37.116Z,-0.10
2018-12-16T01:44:05.375Z,-0.10
2018-12-16T01:46:33.764Z,-0.10
2018-12-16T01:49:02.171Z,-0.20
2018-12-16T01:51:30.463Z,-0.20
2018-12-16T01:53:58.905Z,-0.20
2018-12-16T01:56:27.364Z,-0.20
2018-12-16T01:58:55.682Z,-0.20
2018-12-16T02:01:23.900Z,-0.20
2018-12-16T02:03:52.245Z,-0.20
2018-12-16T02:06:20.531Z,-0.20
2018-12-16T02:08:48.883Z,-0.20
2018-12-16T02:11:17.134Z,-0.30
2018-12-16T02:13:45.452Z,-0.30
2018-12-16T02:16:13.712Z,-0.20
2018-12-16T02:18:41.966Z,-0.20
2018-12-16T02:21:10.222Z,-0.30
2018-12-16T02:23:38.606Z,-0.20
2018-12-16T02:26:06.973Z,-0.20
2018-12-16T02:28:35.374Z,-0.20
2018-12-16T02:31:03.727Z,-0.30
2018-12-16T02:33:32.046Z,-0.30
2018-12-16T02:36:00.277Z,-0.30
2018-12-16T02:38:28.564Z,-0.30
2018-12-16T02:40:56.912Z,-0.30
2018-12-16T02:43:25.247Z,-0.30
2018-12-16T02:45:53.627Z,-0.20
2018-12-16T02:48:21.984Z,-0.30
2018-12-16T02:50:50.308Z,-0.30
2018-12-16T02:53:18.525Z,-0.30
2018-12-16T02:55:46.919Z,-0.30
2018-12-16T02:58:15.203Z,-0.30
2018-12-16T03:00:43.498Z,-0.30
2018-12-16T03:03:11.845Z,-0.30
2018-12-16T03:05:40.176Z,-0.30
2018-12-16T03:08:08.383Z,-0.30
2018-12-16T03:10:36.793Z,-0.30
2018-12-16T03:13:05.125Z,-0.30
2018-12-16T03:15:34.060Z,-0.30
2018-12-16T03:18:02.397Z,-0.30
2018-12-16T03:20:30.814Z,-0.40
2018-12-16T03:22:59.178Z,-0.40
2018-12-16T03:25:27.624Z,-0.40
2018-12-16T03:27:55.907Z,-0.30
2018-12-16T03:30:24.158Z,-0.30
2018-12-16T03:32:52.584Z,-0.30
2018-12-16T03:35:21.136Z,-0.40
2018-12-16T03:37:49.307Z,-0.30
2018-12-16T03:40:17.752Z,-0.30
2018-12-16T03:42:46.058Z,-0.30
2018-12-16T03:45:14.402Z,-0.30
2018-12-16T03:47:42.678Z,-0.40
2018-12-16T03:50:10.985Z,-0.40
2018-12-16T03:52:39.211Z,-0.40
2018-12-16T03:55:07.570Z,-0.40
2018-12-16T03:57:35.917Z,-0.40
2018-12-16T04:00:04.519Z,-0.40
2018-12-16T04:02:32.863Z,-0.30
2018-12-16T04:05:01.113Z,-0.30
2018-12-16T04:07:29.445Z,-0.30
2018-12-16T04:09:57.662Z,-0.30
2018-12-16T04:12:25.980Z,-0.30
2018-12-16T04:14:54.308Z,-0.30
2018-12-16T04:17:22.673Z,-0.30
2018-12-16T04:19:50.850Z,-0.30
2018-12-16T04:22:19.180Z,-0.30
2018-12-16T04:24:47.713Z,-0.20
2018-12-16T04:27:15.988Z,-0.20
2018-12-16T04:29:44.393Z,-0.20
2018-12-16T04:32:12.702Z,-0.30
2018-12-16T04:34:40.941Z,-0.20
2018-12-16T04:37:10.072Z,-0.20
2018-12-16T04:39:38.472Z,-0.20
2018-12-16T04:42:06.680Z,-0.30
2018-12-16T04:44:35.099Z,-0.30
2018-12-16T04:47:03.472Z,-0.20
2018-12-16T04:49:31.788Z,-0.30
2018-12-16T04:52:00.078Z,-0.20
2018-12-16T04:54:29.135Z,-0.30
2018-12-16T04:56:57.360Z,-0.30
2018-12-16T04:59:25.703Z,-0.30
2018-12-16T05:01:53.978Z,-0.30
2018-12-16T05:04:22.300Z,-0.20
2018-12-16T05:06:50.617Z,-0.30
2018-12-16T05:09:18.983Z,-0.30
2018-12-16T05:11:47.195Z,-0.30
2018-12-16T05:14:15.510Z,-0.30
2018-12-16T05:16:43.865Z,-0.30
2018-12-16T05:19:12.112Z,-0.30
2018-12-16T05:21:40.458Z,-0.30
2018-12-16T05:24:08.774Z,-0.30
2018-12-16T05:26:37.131Z,-0.30
2018-12-16T05:29:05.523Z,-0.30
2018-12-16T05:31:33.837Z,-0.40
2018-12-16T05:34:02.046Z,-0.40
2018-12-16T05:36:30.348Z,-0.30
2018-12-16T05:38:58.566Z,-0.40
2018-12-16T05:41:27.525Z,-0.40
2018-12-16T05:43:55.749Z,-0.40
2018-12-16T05:46:24.041Z,-0.40
2018-12-16T05:48:52.422Z,-0.40
2018-12-16T05:51:20.761Z,-0.40
2018-12-16T05:53:49.204Z,-0.40
2018-12-16T05:56:17.533Z,-0.40
2018-12-16T05:58:45.770Z,-0.40
2018-12-16T06:01:14.040Z,-0.40
2018-12-16T06:03:42.449Z,-0.50
2018-12-16T06:06:10.698Z,-0.40
2018-12-16T06:08:39.069Z,-0.40
2018-12-16T06:11:07.251Z,-0.50
2018-12-16T06:13:35.839Z,-0.50
2018-12-16T06:16:05.179Z,-0.50
2018-12-16T06:18:33.350Z,-0.50
2018-12-16T06:21:01.609Z,-0.50
2018-12-16T06:23:29.742Z,-0.50
2018-12-16T06:25:58.033Z,-0.50
2018-12-16T06:28:26.350Z,-0.50
2018-12-16T06:30:55.069Z,-0.50
2018-12-16T06:33:23.509Z,-0.60
2018-12-16T06:35:51.724Z,-0.50
2018-12-16T06:38:20.235Z,-0.60
2018-12-16T06:40:48.490Z,-0.50
2018-12-16T06:43:16.847Z,-0.60
2018-12-16T06:45:45.109Z,-0.60
2018-12-16T06:48:13.346Z,-0.60
2018-12-16T06:50:41.671Z,-0.60
2018-12-16T06:53:09.870Z,-0.60
2018-12-16T06:55:43.328Z,-0.50
2018-12-16T06:58:08.621Z,-0.50
2018-12-16T07:00:36.823Z,-0.50
2018-12-16T07:03:05.172Z,-0.50
2018-12-16T07:05:33.715Z,-0.50
2018-12-16T07:08:02.119Z,-0.50
2018-12-16T07:10:30.445Z,-0.50
2018-12-16T07:12:58.875Z,-0.60
2018-12-16T07:15:27.463Z,-0.50
2018-12-16T07:17:55.763Z,-0.60
2018-12-16T07:20:24.111Z,-0.60
2018-12-16T07:22:52.544Z,-0.60
2018-12-16T07:25:20.887Z,-0.60
2018-12-16T07:27:50.009Z,-0.60
2018-12-16T07:30:18.761Z,-0.60
2018-12-16T07:32:47.288Z,-0.70
2018-12-16T07:35:15.690Z,-0.70
2018-12-16T07:37:43.964Z,-0.70
2018-12-16T07:40:12.370Z,-0.70
2018-12-16T07:42:40.483Z,-0.70
2018-12-16T07:45:08.813Z,-0.70
2018-12-16T07:47:37.169Z,-0.70
2018-12-16T07:50:07.099Z,-0.70
2018-12-16T07:52:35.550Z,-0.70
2018-12-16T07:55:04.388Z,-0.70
2018-12-16T07:57:32.713Z,-0.70
2018-12-16T08:00:01.097Z,-0.70
2018-12-16T08:02:29.635Z,-0.70
2018-12-16T08:04:57.854Z,-0.70
2018-12-16T08:07:26.120Z,-0.70
2018-12-16T08:09:54.373Z,-0.70
2018-12-16T08:12:22.652Z,-0.70
2018-12-16T08:14:50.883Z,-0.70
2018-12-16T08:17:19.188Z,-0.60
2018-12-16T08:19:47.573Z,-0.60
2018-12-16T08:22:15.874Z,-0.60
2018-12-16T08:24:44.072Z,-0.50
2018-12-16T08:27:12.303Z,-0.50
2018-12-16T08:29:41.845Z,-0.50
2018-12-16T08:32:10.067Z,-0.40
2018-12-16T08:34:38.307Z,-0.50
2018-12-16T08:37:06.541Z,-0.60
2018-12-16T08:39:34.811Z,-0.50
2018-12-16T08:42:03.307Z,-0.60
2018-12-16T08:44:31.562Z,-0.50
2018-12-16T08:46:59.888Z,-0.40
2018-12-16T08:49:28.502Z,-0.50
2018-12-16T08:51:56.849Z,-0.60
2018-12-16T08:54:30.044Z,-0.50
2018-12-16T08:56:55.558Z,-0.50
2018-12-16T08:59:23.872Z,-0.50
2018-12-16T09:01:52.295Z,-0.40
2018-12-16T09:04:20.608Z,-0.50
2018-12-16T09:06:48.967Z,-0.40
2018-12-16T09:09:17.160Z,-0.40
2018-12-16T09:11:45.618Z,-0.40
2018-12-16T09:14:13.839Z,-0.40
2018-12-16T09:16:42.220Z,-0.40
2018-12-16T09:19:10.478Z,-0.10
2018-12-16T09:21:39.040Z,0.10
2018-12-16T09:24:07.769Z,-0.10
2018-12-16T09:26:36.144Z,0.10
2018-12-16T09:29:04.550Z,0.10
2018-12-16T09:31:32.851Z,0.30
2018-12-16T09:34:01.179Z,0.40
2018-12-16T09:36:29.772Z,0.30
2018-12-16T09:38:58.212Z,0.20
2018-12-16T09:41:26.531Z,0.20
2018-12-16T09:43:55.148Z,0.40
2018-12-16T09:46:23.334Z,0.40
2018-12-16T09:48:51.508Z,0.50
2018-12-16T09:51:19.862Z,0.20
2018-12-16T09:53:48.134Z,0.10
2018-12-16T09:56:16.415Z,0.30
2018-12-16T09:58:44.704Z,0.40
2018-12-16T10:01:13.041Z,0.70
2018-12-16T10:03:41.444Z,0.60
2018-12-16T10:06:09.734Z,0.60
2018-12-16T10:08:38.108Z,0.50
2018-12-16T10:11:06.390Z,0.40
2018-12-16T10:13:34.788Z,0.60
2018-12-16T10:16:03.051Z,0.90
2018-12-16T10:18:31.324Z,1.10
2018-12-16T10:20:59.644Z,0.80
2018-12-16T10:23:28.020Z,0.60
2018-12-16T10:25:56.324Z,0.60
2018-12-16T10:28:24.716Z,0.70
2018-12-16T10:30:53.682Z,0.70
2018-12-16T10:33:21.918Z,0.70
2018-12-16T10:35:50.302Z,0.50
2018-12-16T10:38:18.786Z,0.20
2018-12-16T10:40:47.053Z,0.40
2018-12-16T10:43:16.819Z,0.30
2018-12-16T10:45:45.120Z,0.40
2018-12-16T10:48:13.397Z,0.60
2018-12-16T10:50:41.800Z,0.80
2018-12-16T10:53:09.908Z,1.00
2018-12-16T10:55:38.189Z,1.40
2018-12-16T10:58:06.547Z,1.40
2018-12-16T11:00:40.747Z,1.20
2018-12-16T11:03:09.067Z,1.00
2018-12-16T11:05:37.535Z,0.90
2018-12-16T11:08:05.714Z,0.60
2018-12-16T11:10:34.044Z,1.00
2018-12-16T11:13:02.538Z,1.00
2018-12-16T11:15:30.879Z,1.50
2018-12-16T11:17:59.308Z,1.70
2018-12-16T11:20:27.763Z,1.50
2018-12-16T11:22:55.978Z,0.90
2018-12-16T11:25:24.316Z,1.00
2018-12-16T11:27:52.566Z,1.20
2018-12-16T11:30:21.209Z,1.70
2018-12-16T11:32:49.374Z,1.70
2018-12-16T11:35:17.690Z,1.80
2018-12-16T11:37:45.938Z,1.70
2018-12-16T11:40:14.225Z,1.30
2018-12-16T11:42:42.584Z,1.30
2018-12-16T11:45:10.863Z,1.30
2018-12-16T11:47:39.124Z,1.60
2018-12-16T11:50:07.512Z,2.00
2018-12-16T11:52:35.716Z,1.90
2018-12-16T11:55:03.988Z,1.90
2018-12-16T11:57:32.432Z,1.60
2018-12-16T12:00:00.839Z,1.70
2018-12-16T12:02:32.818Z,1.80
2018-12-16T12:04:59.788Z,1.20
2018-12-16T12:07:28.140Z,1.30
2018-12-16T12:09:56.514Z,1.50
2018-12-16T12:12:24.727Z,1.60
2018-12-16T12:14:53.028Z,1.40
2018-12-16T12:17:21.295Z,1.20
2018-12-16T12:19:49.741Z,1.30
2018-12-16T12:22:18.179Z,1.30
2018-12-16T12:24:46.381Z,1.60
2018-12-16T12:27:14.708Z,2.30
2018-12-16T12:29:43.031Z,3.00
2018-12-16T12:32:11.360Z,3.00
2018-12-16T12:34:39.713Z,2.60
2018-12-16T12:37:08.095Z,2.00
2018-12-16T12:39:36.379Z,1.60
2018-12-16T12:42:04.775Z,1.00
2018-12-16T12:44:33.111Z,0.70
2018-12-16T12:47:01.420Z,0.50
2018-12-16T12:49:29.850Z,0.30
2018-12-16T12:51:58.047Z,0.10
2018-12-16T12:54:26.224Z,0.20
2018-12-16T12:56:54.453Z,-0.10
2018-12-16T12:59:22.832Z,-0.10
2018-12-16T13:01:51.175Z,-0.20
2018-12-16T13:04:19.498Z,-0.10
2018-12-16T13:06:47.848Z,0.00
2018-12-16T13:09:16.187Z,0.10
2018-12-16T13:11:44.397Z,0.20
2018-12-16T13:14:12.654Z,0.30
2018-12-16T13:16:40.983Z,0.10
2018-12-16T13:19:09.176Z,0.10
2018-12-16T13:21:37.473Z,0.20
2018-12-16T13:24:05.682Z,0.10
2018-12-16T13:26:34.021Z,-0.10
2018-12-16T13:29:02.392Z,-0.20
2018-12-16T13:31:30.677Z,-0.20
2018-12-16T13:33:58.956Z,-0.20
2018-12-16T13:36:27.393Z,-0.30
2018-12-16T13:38:55.672Z,-0.30
2018-12-16T13:41:23.959Z,-0.30
2018-12-16T13:43:52.267Z,-0.30
2018-12-16T13:46:20.559Z,-0.30
2018-12-16T13:48:48.933Z,-0.30
2018-12-16T13:51:17.262Z,-0.40
2018-12-16T13:53:45.527Z,-0.40
2018-12-16T13:56:14.009Z,-0.50
2018-12-16T13:58:42.325Z,-0.50
2018-12-16T14:01:10.666Z,-0.50
2018-12-16T14:03:39.202Z,-0.50
2018-12-16T14:06:07.443Z,-0.60
2018-12-16T14:08:35.911Z,-0.60
2018-12-16T14:11:04.478Z,-0.50
2018-12-16T14:13:32.887Z,-0.60
2018-12-16T14:16:02.498Z,-0.70
2018-12-16T14:18:30.877Z,-0.70
2018-12-16T14:20:59.159Z,-0.70
2018-12-16T14:23:27.852Z,-0.80
2018-12-16T14:25:56.355Z,-0.90
2018-12-16T14:28:24.667Z,-0.80
2018-12-16T14:30:52.965Z,-0.80
2018-12-16T14:33:21.296Z,-0.80
2018-12-16T14:35:49.555Z,-0.80
2018-12-16T14:38:17.859Z,-0.90
2018-12-16T14:40:46.181Z,-0.90
2018-12-16T14:43:14.433Z,-0.90
2018-12-16T14:45:43.208Z,-0.90
2018-12-16T14:48:11.461Z,-0.90
2018-12-16T14:50:39.721Z,-0.90
2018-12-16T14:53:07.983Z,-0.90
2018-12-16T14:55:36.188Z,-0.90
2018-12-16T14:58:04.493Z,-0.90
2018-12-16T15:00:33.221Z,-0.90
2018-12-16T15:03:02.089Z,-0.90
2018-12-16T15:05:30.575Z,-0.90
2018-12-16T15:07:59.081Z,-0.90
2018-12-16T15:10:27.500Z,-0.80
2018-12-16T15:12:55.973Z,-0.80
2018-12-16T15:15:24.347Z,-0.90
2018-12-16T15:17:53.002Z,-0.90
2018-12-16T15:20:21.375Z,-0.90
2018-12-16T15:22:49.659Z,-0.90
2018-12-16T15:25:17.924Z,-0.80
2018-12-16T15:27:47.325Z,-0.90
2018-12-16T15:30:15.695Z,-0.80
2018-12-16T15:32:44.007Z,-0.80
2018-12-16T15:35:13.808Z,-0.80
2018-12-16T15:37:42.032Z,-0.70
2018-12-16T15:40:10.664Z,-0.80
2018-12-16T15:42:38.952Z,-0.80
2018-12-16T15:45:09.467Z,-0.70
2018-12-16T15:47:38.211Z,-0.80
2018-12-16T15:50:08.125Z,-0.60
2018-12-16T15:52:36.540Z,-0.60
2018-12-16T15:55:07.516Z,-0.70
2018-12-16T15:57:35.936Z,-0.70
2018-12-16T16:00:04.916Z,-0.70
2018-12-16T16:02:33.342Z,-0.70
2018-12-16T16:05:01.890Z,-0.70
2018-12-16T16:07:30.206Z,-0.80
2018-12-16T16:09:58.593Z,-0.70
2018-12-16T16:12:26.938Z,-0.80
2018-12-16T16:14:55.303Z,-0.80
2018-12-16T16:17:23.615Z,-0.80
2018-12-16T16:19:51.805Z,-0.70
2018-12-16T16:22:20.152Z,-0.70
2018-12-16T16:24:48.426Z,-0.70
2018-12-16T16:27:16.680Z,-0.70
2018-12-16T16:29:45.017Z,-0.70
2018-12-16T16:32:13.263Z,-0.70
2018-12-16T16:34:41.511Z,-0.70
2018-12-16T16:37:09.821Z,-0.70
2018-12-16T16:39:38.245Z,-0.70
2018-12-16T16:42:06.579Z,-0.70
2018-12-16T16:44:34.896Z,-0.70
2018-12-16T16:47:03.513Z,-0.70
2018-12-16T16:49:31.878Z,-0.70
2018-12-16T16:52:00.178Z,-0.60
2018-12-16T16:54:28.671Z,-0.70
2018-12-16T16:56:57.055Z,-0.70
2018-12-16T16:59:25.391Z,-0.70
2018-12-16T17:01:53.667Z,-0.70
2018-12-16T17:04:21.921Z,-0.70
2018-12-16T17:06:50.206Z,-0.70
2018-12-16T17:09:18.624Z,-0.70
2018-12-16T17:11:47.295Z,-0.70
2018-12-16T17:14:15.615Z,-0.70
2018-12-16T17:16:43.917Z,-0.70
2018-12-16T17:19:12.570Z,-0.70
2018-12-16T17:21:41.714Z,-0.70
2018-12-16T17:24:10.007Z,-0.70
2018-12-16T17:26:38.264Z,-0.70
2018-12-16T17:29:06.564Z,-0.70
2018-12-16T17:31:34.819Z,-0.70
2018-12-16T17:34:03.320Z,-0.70
2018-12-16T17:36:31.548Z,-0.70
2018-12-16T17:38:59.768Z,-0.70
2018-12-16T17:41:28.451Z,-0.70
2018-12-16T17:43:56.643Z,-0.60
2018-12-16T17:46:25.057Z,-0.60
2018-12-16T17:48:53.346Z,-0.60
2018-12-16T17:51:21.766Z,-0.60
2018-12-16T17:53:50.265Z,-0.50
2018-12-16T17:56:18.666Z,-0.50
2018-12-16T17:58:47.221Z,-0.50
2018-12-16T18:01:15.504Z,-0.50
2018-12-16T18:03:43.815Z,-0.50
2018-12-16T18:06:12.222Z,-0.40
2018-12-16T18:08:40.690Z,-0.50
2018-12-16T18:11:09.233Z,-0.60
2018-12-16T18:13:37.700Z,-0.60
2018-12-16T18:16:06.128Z,-0.60
2018-12-16T18:18:34.531Z,-0.70
2018-12-16T18:21:02.839Z,-0.80
2018-12-16T18:23:31.159Z,-0.90
2018-12-16T18:25:59.382Z,-0.90
2018-12-16T18:28:28.071Z,-1.00
2018-12-16T18:30:56.358Z,-1.10
2018-12-16T18:33:24.877Z,-1.20
2018-12-16T18:35:53.269Z,-1.20
2018-12-16T18:38:21.510Z,-1.30
2018-12-16T18:40:49.965Z,-1.30
2018-12-16T18:43:18.185Z,-1.40
2018-12-16T18:45:46.595Z,-1.40
2018-12-16T18:48:15.038Z,-1.40
2018-12-16T18:50:43.323Z,-1.40
2018-12-16T18:53:11.783Z,-1.40
2018-12-16T18:55:40.200Z,-1.30
2018-12-16T18:58:08.800Z,-1.40
2018-12-16T19:00:37.148Z,-1.40
2018-12-16T19:03:05.726Z,-1.40
2018-12-16T19:05:34.321Z,-1.40
2018-12-16T19:08:02.729Z,-1.40
2018-12-16T19:10:31.203Z,-1.50
2018-12-16T19:12:59.566Z,-1.40
2018-12-16T19:15:28.323Z,-1.40
2018-12-16T19:17:56.619Z,-1.40
2018-12-16T19:20:24.959Z,-1.40
2018-12-16T19:22:53.351Z,-1.40
2018-12-16T19:25:21.674Z,-1.30
2018-12-16T19:27:49.988Z,-1.40
2018-12-16T19:30:18.315Z,-1.40
2018-12-16T19:32:46.771Z,-1.40
2018-12-16T19:35:15.099Z,-1.30
2018-12-16T19:37:43.424Z,-1.40
2018-12-16T19:40:11.802Z,-1.30
2018-12-16T19:42:40.178Z,-1.30
2018-12-16T19:45:09.770Z,-1.30
2018-12-16T19:47:38.482Z,-1.30
2018-12-16T19:50:08.264Z,-1.30
2018-12-16T19:52:36.632Z,-1.30
2018-12-16T19:55:05.458Z,-1.30
2018-12-16T19:57:33.806Z,-1.30
2018-12-16T20:00:02.287Z,-1.30
2018-12-16T20:02:30.494Z,-1.30
2018-12-16T20:05:05.637Z,-1.20
2018-12-16T20:07:34.286Z,-1.10
2018-12-16T20:10:02.663Z,-1.10
2018-12-16T20:12:31.160Z,-1.10
2018-12-16T20:14:59.438Z,-1.10
2018-12-16T20:17:27.900Z,-1.10
2018-12-16T20:19:56.195Z,-1.10
2018-12-16T20:22:24.546Z,-1.10
2018-12-16T20:24:52.931Z,-1.10
2018-12-16T20:27:21.123Z,-1.10
2018-12-16T20:29:49.383Z,-1.00
2018-12-16T20:32:17.639Z,-1.00
2018-12-16T20:34:46.926Z,-1.00
2018-12-16T20:37:15.173Z,-0.90
2018-12-16T20:39:43.451Z,-0.90
2018-12-16T20:42:11.897Z,-0.90
2018-12-16T20:44:40.169Z,-0.80
2018-12-16T20:47:08.494Z,-0.80
2018-12-16T20:49:36.742Z,-0.70
2018-12-16T20:52:05.081Z,-0.70
2018-12-16T20:54:33.454Z,-0.70
2018-12-16T20:57:01.829Z,-0.70
2018-12-16T20:59:30.356Z,-0.70
2018-12-16T21:01:58.642Z,-0.60
2018-12-16T21:04:27.024Z,-0.60
2018-12-16T21:06:55.456Z,-0.60
2018-12-16T21:09:23.901Z,-0.60
2018-12-16T21:11:58.015Z,-0.60
2018-12-16T21:14:31.830Z,-0.60
2018-12-16T21:17:05.570Z,-0.60
2018-12-16T21:19:34.314Z,-0.60
2018-12-16T21:22:02.819Z,-0.60
2018-12-16T21:24:31.289Z,-0.60
2018-12-16T21:27:06.209Z,-0.60
2018-12-16T21:29:34.919Z,-0.60
2018-12-16T21:32:03.466Z,-0.60
2018-12-16T21:34:31.803Z,-0.60
2018-12-16T21:37:00.019Z,-0.60
2018-12-16T21:39:28.772Z,-0.60
2018-12-16T21:41:57.177Z,-0.60
2018-12-16T21:44:25.600Z,-0.60
2018-12-16T21:46:54.217Z,-0.60
2018-12-16T21:49:23.060Z,-0.60
2018-12-16T21:51:51.373Z,-0.50
2018-12-16T21:54:19.909Z,-0.50
2018-12-16T21:56:48.253Z,-0.50
2018-12-16T21:59:16.785Z,-0.50
2018-12-16T22:01:45.142Z,-0.50
2018-12-16T22:04:13.464Z,-0.50
2018-12-16T22:06:41.885Z,-0.50
2018-12-16T22:09:11.822Z,-0.50
2018-12-16T22:11:40.522Z,-0.50
2018-12-16T22:14:09.180Z,-0.50
2018-12-16T22:16:37.615Z,-0.50
2018-12-16T22:19:06.254Z,-0.50
2018-12-16T22:21:34.668Z,-0.50
2018-12-16T22:24:03.087Z,-0.50
2018-12-16T22:26:31.521Z,-0.40
2018-12-16T22:28:59.908Z,-0.40
2018-12-16T22:31:28.585Z,-0.30
2018-12-16T22:33:57.033Z,-0.40
2018-12-16T22:36:25.262Z,-0.40
2018-12-16T22:38:53.688Z,-0.40
2018-12-16T22:41:21.875Z,-0.40
2018-12-16T22:43:50.624Z,-0.40
2018-12-16T22:46:19.104Z,-0.40
2018-12-16T22:48:47.573Z,-0.40
2018-12-16T22:51:16.028Z,-0.40
2018-12-16T22:53:44.339Z,-0.40
2018-12-16T22:56:12.604Z,-0.40
2018-12-16T22:58:41.271Z,-0.40
2018-12-16T23:01:15.142Z,-0.50
2018-12-16T23:03:43.363Z,-0.40
2018-12-16T23:06:11.853Z,-0.40
2018-12-16T23:08:40.202Z,-0.40
2018-12-16T23:11:08.635Z,-0.40
2018-12-16T23:13:37.031Z,-0.40
2018-12-16T23:16:05.291Z,-0.40
2018-12-16T23:18:33.662Z,-0.40
2018-12-16T23:21:02.272Z,-0.30
2018-12-16T23:23:30.523Z,-0.30
2018-12-16T23:25:58.850Z,-0.30
2018-12-16T23:28:27.235Z,-0.40
2018-12-16T23:30:55.706Z,-0.30
2018-12-16T23:33:24.095Z,-0.40
2018-12-16T23:35:52.343Z,-0.30
2018-12-16T23:38:20.639Z,-0.30
2018-12-16T23:40:48.882Z,-0.30
2018-12-16T23:43:17.180Z,-0.30
2018-12-16T23:45:45.409Z,-0.30
2018-12-16T23:48:13.824Z,-0.30
2018-12-16T23:50:42.138Z,-0.20
2018-12-16T23:53:10.584Z,-0.20
2018-12-16T23:55:38.909Z,-0.20
2018-12-16T23:58:08.166Z,-0.20
